Terminal Aerodrome Forecast
Issued by NWS Detroit/Pontiac, MI

Home | Current Version | Previous Version | Text Only | Print | Product List | Glossary On
Versions: 1 2 3 4 5 6 7 8 9 10 11 12 13 14 15 16 17 18 19 20 21
000
FTUS43 KDTX 251721
TAFFNT
TAF
KFNT 251721Z 2518/2618 27018G30KT P6SM SCT030 BKN045
     FM260100 27013G20KT P6SM SCT025 BKN040
     FM261000 23013G20KT P6SM SCT040 OVC150
     FM261600 22018G30KT P6SM BKN050=

USA.gov is the U.S. government's official web portal to all federal, state and local government web resources and services.